Denison, Texas
Current Conditions -  °F | °C
As of 1:35 AM on Saturday 29 Nov 2014 (Local Time) from KGYI Reporting Station
Clear Clear  
Wind Chill: 58°   Ceiling: Unl
Heat Index: 58°   Visibility: 10mi
Dew Point: 49°   Wind: 17mph
Humidity: 72%   Direction: 200°SSW
Pressure: 29.92"   Gusts: 24mph
Location:  33.76°N, 96.54°W
Report Text: KGYI 290735Z AUTO 20015G21KT 10SM CLR 15/10 A2992 RMK AO2 T01460096
Loading
Personal Weather Stations






























Interactive Weather Map New forecast layout! Learn more

10-Day Weather Forecast

Advertisements
Track Severe Weather on mobile